Time;durP1;ratioP1;P1;durP2;ratioP2;P2;SDS_P1;SDS_P2;PMS_P1;PMS_P2;Temp;Humidity;BMP_temperature;BMP_pressure;BME280_temperature;BME280_humidity;BME280_pressure;Samples;Min_cycle;Max_cycle;Signal;HPM_P1;HPM_P2
2021/12/25 00:02:27;;;;;;;6.03;1.17;;;;;;;;;;5068674;28;20131;-49
2021/12/25 00:04:53;;;;;;;6.80;1.20;;;;;;;;;;5068191;28;20076;-49
2021/12/25 00:07:19;;;;;;;6.93;1.00;;;;;;;;;;5067975;28;20504;-48
2021/12/25 00:09:45;;;;;;;7.25;0.98;;;;;;;;;;5068110;28;20141;-46
2021/12/25 00:12:11;;;;;;;5.25;0.85;;;;;;;;;;5067784;28;20051;-47
2021/12/25 00:14:37;;;;;;;2.45;0.88;;;;;;;;;;5068234;28;20150;-49
2021/12/25 00:17:03;;;;;;;2.33;0.65;;;;;;;;;;5067923;28;20051;-49
2021/12/25 00:19:29;;;;;;;5.15;1.00;;;;;;;;;;5067904;28;20044;-46
2021/12/25 00:21:59;;;;;;;4.85;1.20;;;;;;;;;;5068201;28;20050;-47
2021/12/25 00:24:25;;;;;;;5.57;1.10;;;;;;;;;;5067919;28;20055;-49
2021/12/25 00:27:02;;;;;;;5.20;1.40;;;;;;;;;;5067916;28;20131;-48
2021/12/25 00:32:13;;;;;;;1.58;0.60;;;;;;;;;;5068038;28;20049;-49
2021/12/25 00:34:40;;;;;;;4.63;1.58;;;;;;;;;;5067739;28;20049;-48
2021/12/25 00:37:08;;;;;;;4.13;0.75;;;;;;;;;;5067387;28;20094;-48
2021/12/25 00:39:34;;;;;;;8.25;0.93;;;;;;;;;;5049553;28;20228;-49
2021/12/25 00:42:01;;;;;;;5.45;0.75;;;;;;;;;;5067659;28;20037;-49
2021/12/25 00:44:31;;;;;;;2.60;0.60;;;;;;;;;;5066357;28;20500;-47
2021/12/25 00:47:00;;;;;;;2.80;0.68;;;;;;;;;;5068166;28;20045;-49
2021/12/25 00:49:26;;;;;;;8.05;1.38;;;;;;;;;;5068331;28;20409;-48
2021/12/25 00:51:52;;;;;;;1.38;0.38;;;;;;;;;;5068183;28;20045;-49
2021/12/25 00:54:19;;;;;;;4.82;0.80;;;;;;;;;;5068059;28;20411;-48
2021/12/25 00:56:45;;;;;;;3.97;0.80;;;;;;;;;;5068118;28;20136;-48
2021/12/25 00:59:11;;;;;;;5.65;1.17;;;;;;;;;;5067837;28;20489;-47
2021/12/25 01:01:37;;;;;;;2.40;0.60;;;;;;;;;;5068123;28;20640;-45
2021/12/25 01:04:04;;;;;;;3.97;1.08;;;;;;;;;;5067853;28;20090;-48
2021/12/25 01:06:30;;;;;;;1.75;0.47;;;;;;;;;;5067716;28;20147;-45
2021/12/25 01:08:56;;;;;;;3.67;2.35;;;;;;;;;;5068230;28;20056;-48
2021/12/25 01:11:24;;;;;;;2.40;0.60;;;;;;;;;;5067818;28;20102;-48
2021/12/25 01:13:58;;;;;;;3.00;0.52;;;;;;;;;;5067827;28;20060;-48
2021/12/25 01:16:56;;;;;;;4.78;0.93;;;;;;;;;;5067550;28;20501;-48
2021/12/25 01:19:43;;;;;;;5.53;0.73;;;;;;;;;;5067290;28;20063;-49
2021/12/25 01:27:57;;;;;;;0.85;0.40;;;;;;;;;;5067557;28;20044;-48
2021/12/25 01:30:29;;;;;;;4.75;1.55;;;;;;;;;;5066849;28;20045;-45
2021/12/25 01:33:32;;;;;;;2.60;0.60;;;;;;;;;;5067248;28;20163;-48
2021/12/25 01:41:27;;;;;;;5.70;0.93;;;;;;;;;;5071097;28;20132;-48
2021/12/25 01:49:25;;;;;;;3.28;0.60;;;;;;;;;;5071053;28;20095;-42
2021/12/25 01:51:52;;;;;;;1.08;0.40;;;;;;;;;;5070749;28;20677;-44
2021/12/25 01:54:18;;;;;;;2.13;0.40;;;;;;;;;;5070496;28;20048;-45
2021/12/25 01:56:44;;;;;;;1.42;0.82;;;;;;;;;;5071549;28;20051;-46
2021/12/25 01:59:10;;;;;;;3.17;0.63;;;;;;;;;;5071118;28;20041;-47
2021/12/25 02:01:36;;;;;;;0.73;0.43;;;;;;;;;;5071528;28;20091;-46
2021/12/25 02:04:02;;;;;;;4.80;0.90;;;;;;;;;;5071129;28;20051;-45
2021/12/25 02:06:30;;;;;;;5.72;0.80;;;;;;;;;;5071127;28;20561;-48
2021/12/25 02:08:56;;;;;;;9.35;0.68;;;;;;;;;;5070762;28;20158;-43
2021/12/25 02:11:24;;;;;;;2.55;0.73;;;;;;;;;;5071046;28;20056;-46
2021/12/25 02:13:52;;;;;;;2.25;0.68;;;;;;;;;;5071216;28;20056;-46
2021/12/25 02:16:21;;;;;;;1.40;0.60;;;;;;;;;;5070641;28;20119;-46
2021/12/25 02:19:11;;;;;;;1.05;0.45;;;;;;;;;;5070855;28;20417;-43
2021/12/25 02:21:39;;;;;;;5.30;1.10;;;;;;;;;;5070939;28;20102;-46
2021/12/25 02:24:07;;;;;;;3.40;0.60;;;;;;;;;;5070553;28;20486;-45
2021/12/25 02:26:33;;;;;;;5.85;0.60;;;;;;;;;;5070002;28;20048;-43
2021/12/25 02:29:02;;;;;;;7.20;0.50;;;;;;;;;;5069977;28;20386;-45
2021/12/25 02:31:30;;;;;;;5.95;0.68;;;;;;;;;;5070085;28;20044;-47
2021/12/25 02:33:56;;;;;;;1.55;0.50;;;;;;;;;;5069850;28;20044;-46
2021/12/25 02:36:22;;;;;;;3.58;0.57;;;;;;;;;;5069805;28;20044;-46
2021/12/25 02:38:49;;;;;;;1.33;0.47;;;;;;;;;;5069891;28;20040;-47
2021/12/25 02:41:16;;;;;;;4.13;0.68;;;;;;;;;;5069906;28;20127;-47
2021/12/25 02:43:44;;;;;;;0.85;0.40;;;;;;;;;;5069789;28;20044;-44
2021/12/25 02:46:10;;;;;;;5.00;0.60;;;;;;;;;;5068459;28;20106;-44
2021/12/25 02:48:37;;;;;;;1.00;0.50;;;;;;;;;;5069237;28;20459;-42
2021/12/25 02:51:04;;;;;;;2.58;0.52;;;;;;;;;;5069545;28;20040;-43
2021/12/25 02:53:30;;;;;;;0.50;0.25;;;;;;;;;;5069633;28;20041;-46
2021/12/25 02:55:58;;;;;;;2.80;0.73;;;;;;;;;;5069498;28;20517;-44
2021/12/25 02:58:24;;;;;;;2.30;0.70;;;;;;;;;;5069216;28;20523;-46
2021/12/25 03:00:55;;;;;;;4.65;0.60;;;;;;;;;;5069241;28;20052;-43
2021/12/25 03:03:23;;;;;;;2.50;0.35;;;;;;;;;;5069292;28;20051;-43
2021/12/25 03:05:52;;;;;;;1.67;0.47;;;;;;;;;;5069210;28;20056;-44
2021/12/25 03:08:18;;;;;;;2.72;0.50;;;;;;;;;;5069088;28;20120;-41
2021/12/25 03:10:45;;;;;;;4.07;0.70;;;;;;;;;;5069813;28;20047;-44
2021/12/25 03:15:46;;;;;;;2.03;0.20;;;;;;;;;;5069540;28;20056;-40
2021/12/25 03:18:13;;;;;;;3.03;0.50;;;;;;;;;;5069469;28;20627;-42
2021/12/25 03:20:44;;;;;;;3.08;0.60;;;;;;;;;;5069398;28;20045;-43
2021/12/25 03:23:10;;;;;;;2.00;0.40;;;;;;;;;;5069518;28;20044;-42
2021/12/25 03:25:36;;;;;;;2.92;0.60;;;;;;;;;;5069477;28;20605;-41
2021/12/25 03:28:02;;;;;;;2.80;0.60;;;;;;;;;;5069504;28;20101;-41
2021/12/25 03:30:31;;;;;;;3.58;0.70;;;;;;;;;;5069491;28;20044;-41
2021/12/25 03:32:59;;;;;;;2.88;0.50;;;;;;;;;;5069467;28;20074;-41
2021/12/25 03:35:25;;;;;;;7.57;2.22;;;;;;;;;;5069387;28;20412;-44
2021/12/25 03:37:53;;;;;;;1.00;0.55;;;;;;;;;;5069331;28;20513;-42
2021/12/25 03:40:19;;;;;;;1.38;0.30;;;;;;;;;;5068660;28;20127;-42
2021/12/25 03:42:45;;;;;;;2.15;0.77;;;;;;;;;;5068634;28;20040;-41
2021/12/25 03:45:15;;;;;;;2.38;0.43;;;;;;;;;;5068474;28;20144;-40
2021/12/25 03:47:41;;;;;;;1.92;0.30;;;;;;;;;;5068488;28;20040;-42
2021/12/25 03:58:30;;;;;;;1.67;0.45;;;;;;;;;;5067738;28;20544;-42
2021/12/25 04:01:01;;;;;;;1.73;1.15;;;;;;;;;;5068159;28;20713;-40
2021/12/25 04:03:42;;;;;;;0.57;0.40;;;;;;;;;;5068064;28;20409;-45
2021/12/25 04:06:10;;;;;;;3.17;0.60;;;;;;;;;;5066389;28;20056;-41
2021/12/25 04:08:43;;;;;;;1.08;0.40;;;;;;;;;;5066871;28;20044;-41
2021/12/25 04:11:25;;;;;;;5.03;0.60;;;;;;;;;;5068029;28;20472;-41
2021/12/25 04:13:53;;;;;;;1.23;0.60;;;;;;;;;;5067853;28;20120;-42
2021/12/25 04:16:19;;;;;;;1.63;0.35;;;;;;;;;;5068003;28;20049;-42
2021/12/25 04:18:45;;;;;;;2.35;0.45;;;;;;;;;;5067810;28;20451;-44
2021/12/25 04:21:14;;;;;;;3.53;0.40;;;;;;;;;;5067597;28;20653;-42
2021/12/25 04:23:43;;;;;;;1.77;0.50;;;;;;;;;;5067642;28;20485;-42
2021/12/25 04:26:09;;;;;;;1.45;0.40;;;;;;;;;;5068281;28;20044;-41
2021/12/25 04:28:45;;;;;;;1.00;0.30;;;;;;;;;;5068361;28;20044;-42
2021/12/25 05:01:41;;;;;;;0.47;0.30;;;;;;;;;;5067707;28;20140;-41
2021/12/25 05:04:15;;;;;;;1.38;0.40;;;;;;;;;;5067453;28;20546;-41
2021/12/25 05:06:41;;;;;;;0.68;0.30;;;;;;;;;;5067240;28;20082;-42
2021/12/25 05:09:08;;;;;;;1.27;0.40;;;;;;;;;;5066896;28;20106;-41
2021/12/25 05:11:36;;;;;;;1.85;0.40;;;;;;;;;;5067192;28;20040;-45
2021/12/25 05:14:02;;;;;;;0.43;0.30;;;;;;;;;;5067325;28;20045;-40
2021/12/25 05:16:28;;;;;;;2.42;0.40;;;;;;;;;;5067351;28;20075;-40
2021/12/25 05:18:56;;;;;;;0.47;0.20;;;;;;;;;;5067285;28;20046;-44
2021/12/25 05:21:22;;;;;;;0.98;0.57;;;;;;;;;;5066825;28;20091;-42
2021/12/25 05:23:48;;;;;;;1.25;0.52;;;;;;;;;;5067247;28;20080;-42
2021/12/25 05:26:15;;;;;;;3.17;0.50;;;;;;;;;;5066686;28;20076;-42
2021/12/25 05:28:44;;;;;;;3.72;1.13;;;;;;;;;;5066834;28;20763;-42
2021/12/25 05:31:11;;;;;;;5.03;0.35;;;;;;;;;;5067043;28;20052;-43
2021/12/25 05:33:38;;;;;;;2.65;0.70;;;;;;;;;;5067224;28;20448;-42
2021/12/25 05:36:04;;;;;;;1.88;0.52;;;;;;;;;;5066884;28;20045;-42
2021/12/25 05:38:31;;;;;;;0.30;0.20;;;;;;;;;;5066852;28;20126;-41
2021/12/25 05:40:57;;;;;;;1.98;0.47;;;;;;;;;;5066960;28;20040;-41
2021/12/25 05:43:24;;;;;;;0.30;0.20;;;;;;;;;;5067337;28;20045;-40
2021/12/25 05:45:51;;;;;;;1.77;0.40;;;;;;;;;;5067318;28;20116;-40
2021/12/25 05:48:17;;;;;;;5.03;0.50;;;;;;;;;;5067384;28;20045;-43
2021/12/25 05:50:45;;;;;;;1.25;0.50;;;;;;;;;;5067397;28;20075;-40
2021/12/25 05:53:11;;;;;;;3.03;0.77;;;;;;;;;;5066139;28;20055;-41
2021/12/25 05:55:37;;;;;;;2.30;0.32;;;;;;;;;;5067240;28;20048;-41
2021/12/25 05:58:04;;;;;;;3.28;0.70;;;;;;;;;;5067037;28;20090;-40
2021/12/25 06:00:30;;;;;;;0.63;0.32;;;;;;;;;;5067308;28;20032;-41
2021/12/25 06:02:56;;;;;;;1.10;0.30;;;;;;;;;;5067210;28;20630;-41
2021/12/25 06:05:23;;;;;;;1.08;0.40;;;;;;;;;;5066888;28;20131;-42
2021/12/25 06:07:51;;;;;;;2.78;0.30;;;;;;;;;;5067172;28;20052;-41
2021/12/25 06:10:17;;;;;;;1.35;0.50;;;;;;;;;;5066863;28;20066;-42
2021/12/25 06:12:44;;;;;;;2.50;0.50;;;;;;;;;;5066530;28;20047;-40
2021/12/25 06:15:12;;;;;;;0.22;0.22;;;;;;;;;;5066633;28;20040;-44
2021/12/25 06:17:39;;;;;;;1.55;0.63;;;;;;;;;;5066642;28;20052;-41
2021/12/25 06:20:05;;;;;;;1.92;0.38;;;;;;;;;;5066148;28;20048;-46
2021/12/25 06:22:32;;;;;;;1.75;0.57;;;;;;;;;;5069585;28;20484;-43
2021/12/25 06:24:58;;;;;;;2.53;0.47;;;;;;;;;;5069932;28;20048;-40
2021/12/25 06:27:24;;;;;;;6.60;0.60;;;;;;;;;;5069700;28;20576;-43
2021/12/25 06:29:51;;;;;;;1.42;0.52;;;;;;;;;;5069835;28;20051;-41
2021/12/25 06:32:17;;;;;;;1.40;0.50;;;;;;;;;;5069792;28;20062;-41
2021/12/25 06:34:43;;;;;;;0.88;0.40;;;;;;;;;;5069669;28;20552;-40
2021/12/25 06:37:10;;;;;;;3.33;0.60;;;;;;;;;;5069749;28;20532;-41
2021/12/25 06:39:40;;;;;;;3.40;0.60;;;;;;;;;;5069501;28;20041;-41
2021/12/25 06:42:06;;;;;;;1.50;0.40;;;;;;;;;;5069681;28;20044;-41
2021/12/25 06:44:32;;;;;;;0.45;0.30;;;;;;;;;;5069787;28;20127;-41
2021/12/25 06:47:00;;;;;;;1.02;0.22;;;;;;;;;;5069775;28;20152;-42
2021/12/25 06:49:29;;;;;;;2.90;0.60;;;;;;;;;;5069727;28;20040;-43
2021/12/25 06:51:55;;;;;;;3.33;0.52;;;;;;;;;;5069320;28;20758;-42
2021/12/25 06:54:21;;;;;;;2.28;0.60;;;;;;;;;;5069349;28;20040;-43
2021/12/25 06:56:49;;;;;;;3.88;0.85;;;;;;;;;;5069644;28;20076;-43
2021/12/25 06:59:16;;;;;;;2.22;0.47;;;;;;;;;;5069951;28;20044;-44
2021/12/25 07:01:42;;;;;;;4.05;0.63;;;;;;;;;;5070207;28;20053;-43
2021/12/25 07:04:11;;;;;;;1.88;0.70;;;;;;;;;;5069935;28;20448;-42
2021/12/25 07:06:39;;;;;;;3.38;0.50;;;;;;;;;;5069760;28;20063;-46
2021/12/25 07:09:06;;;;;;;2.40;0.57;;;;;;;;;;5069771;28;20053;-41
2021/12/25 07:11:33;;;;;;;3.13;0.50;;;;;;;;;;5069965;28;20459;-42
2021/12/25 07:14:02;;;;;;;3.40;0.77;;;;;;;;;;5070022;28;20056;-41
2021/12/25 07:16:28;;;;;;;5.30;0.65;;;;;;;;;;5070144;28;20044;-42
2021/12/25 07:18:54;;;;;;;7.90;0.60;;;;;;;;;;5068870;28;20048;-45
2021/12/25 07:21:20;;;;;;;1.00;0.40;;;;;;;;;;5070023;28;20045;-45
2021/12/25 07:23:46;;;;;;;1.02;0.52;;;;;;;;;;5070388;28;20037;-45
2021/12/25 07:26:12;;;;;;;2.83;0.52;;;;;;;;;;5070267;28;20121;-44
2021/12/25 07:28:38;;;;;;;4.82;0.70;;;;;;;;;;5069664;28;20056;-47
2021/12/25 07:31:06;;;;;;;2.15;0.57;;;;;;;;;;5069343;28;20041;-45
2021/12/25 07:33:32;;;;;;;4.68;1.00;;;;;;;;;;5068524;28;20060;-41
2021/12/25 07:36:00;;;;;;;1.55;0.40;;;;;;;;;;5069246;28;20132;-45
2021/12/25 07:38:26;;;;;;;3.00;0.50;;;;;;;;;;5069218;28;20090;-46
2021/12/25 07:40:52;;;;;;;2.95;0.60;;;;;;;;;;5069044;28;20098;-45
2021/12/25 07:43:18;;;;;;;2.88;0.88;;;;;;;;;;5068986;28;20059;-42
2021/12/25 07:45:48;;;;;;;2.25;0.82;;;;;;;;;;5069366;28;20047;-41
2021/12/25 07:48:14;;;;;;;1.75;0.50;;;;;;;;;;5068612;28;20048;-42
2021/12/25 07:50:40;;;;;;;1.92;0.73;;;;;;;;;;5068420;28;20071;-43
2021/12/25 07:53:10;;;;;;;6.85;2.40;;;;;;;;;;5067106;28;20032;-42
2021/12/25 07:55:37;;;;;;;2.42;0.75;;;;;;;;;;5068698;28;20312;-44
2021/12/25 07:58:03;;;;;;;4.53;0.70;;;;;;;;;;5067033;28;20251;-44
2021/12/25 08:00:29;;;;;;;2.67;0.80;;;;;;;;;;5066959;28;20076;-44
2021/12/25 08:02:55;;;;;;;2.42;0.60;;;;;;;;;;5067885;28;20564;-44
2021/12/25 08:05:21;;;;;;;2.53;0.80;;;;;;;;;;5067626;28;20062;-41
2021/12/25 08:07:48;;;;;;;2.80;0.60;;;;;;;;;;5081500;28;20063;-41
2021/12/25 08:10:17;;;;;;;4.07;0.70;;;;;;;;;;5072030;28;20036;-44
2021/12/25 08:12:45;;;;;;;2.75;0.50;;;;;;;;;;5049128;28;20056;-42
2021/12/25 08:15:12;;;;;;;3.85;0.68;;;;;;;;;;5048923;28;20044;-42
2021/12/25 08:17:38;;;;;;;1.23;0.30;;;;;;;;;;5055989;28;20521;-41
2021/12/25 08:20:05;;;;;;;3.80;0.88;;;;;;;;;;5068994;28;20052;-40
2021/12/25 08:22:33;;;;;;;1.98;0.77;;;;;;;;;;5069159;28;20046;-41
2021/12/25 08:25:01;;;;;;;1.45;0.60;;;;;;;;;;5068724;28;20044;-41
2021/12/25 08:27:27;;;;;;;3.10;0.50;;;;;;;;;;5068344;28;20611;-41
2021/12/25 08:29:53;;;;;;;1.25;0.57;;;;;;;;;;5068717;28;20055;-42
2021/12/25 08:32:19;;;;;;;2.85;0.52;;;;;;;;;;5068317;28;20044;-41
2021/12/25 08:34:45;;;;;;;5.88;0.80;;;;;;;;;;5068760;28;20044;-44
2021/12/25 08:37:12;;;;;;;1.38;0.50;;;;;;;;;;5068782;28;20127;-47
2021/12/25 08:39:40;;;;;;;4.65;0.98;;;;;;;;;;5068510;28;20143;-43
2021/12/25 08:42:08;;;;;;;2.45;0.93;;;;;;;;;;5068420;28;20131;-46
2021/12/25 08:44:39;;;;;;;2.53;0.93;;;;;;;;;;5067072;28;20132;-44
2021/12/25 08:47:07;;;;;;;3.88;0.55;;;;;;;;;;5067548;28;20061;-43
2021/12/25 08:49:35;;;;;;;4.20;0.80;;;;;;;;;;5068000;28;20029;-44
2021/12/25 08:52:05;;;;;;;1.55;0.55;;;;;;;;;;5067793;28;20080;-47
2021/12/25 08:54:31;;;;;;;2.42;0.70;;;;;;;;;;5067728;28;20078;-48
2021/12/25 08:56:58;;;;;;;2.03;0.73;;;;;;;;;;5067773;28;20747;-47
2021/12/25 08:59:26;;;;;;;1.77;0.70;;;;;;;;;;5067361;28;20080;-45
2021/12/25 09:01:52;;;;;;;1.70;0.52;;;;;;;;;;5067857;28;20058;-47
2021/12/25 09:04:20;;;;;;;1.52;0.52;;;;;;;;;;5067718;28;20052;-44
2021/12/25 09:06:46;;;;;;;5.38;0.80;;;;;;;;;;5067401;28;20499;-48
2021/12/25 09:09:12;;;;;;;2.05;0.70;;;;;;;;;;5067451;28;20053;-44
2021/12/25 09:11:39;;;;;;;3.60;0.90;;;;;;;;;;5067554;28;20045;-46
2021/12/25 09:14:06;;;;;;;3.55;0.77;;;;;;;;;;5067116;28;20040;-46
2021/12/25 09:16:32;;;;;;;1.27;0.65;;;;;;;;;;5067913;28;20051;-47
2021/12/25 09:18:58;;;;;;;1.88;0.47;;;;;;;;;;5067478;28;20268;-44
2021/12/25 09:21:24;;;;;;;7.30;2.08;;;;;;;;;;5067365;28;20048;-43
2021/12/25 09:23:50;;;;;;;1.70;0.65;;;;;;;;;;5067864;28;20120;-45
2021/12/25 09:26:19;;;;;;;2.10;0.80;;;;;;;;;;5068059;28;20109;-47
2021/12/25 09:28:45;;;;;;;1.40;0.55;;;;;;;;;;5068180;28;20040;-44
2021/12/25 09:31:11;;;;;;;3.28;0.50;;;;;;;;;;5067984;28;20040;-48
2021/12/25 09:33:38;;;;;;;3.05;0.77;;;;;;;;;;5068197;28;20767;-45
2021/12/25 09:36:04;;;;;;;4.50;0.93;;;;;;;;;;5068055;28;20051;-47
2021/12/25 09:38:30;;;;;;;4.13;0.60;;;;;;;;;;5068203;28;20125;-45
2021/12/25 09:40:57;;;;;;;2.65;0.40;;;;;;;;;;5067910;28;20086;-47
2021/12/25 09:43:26;;;;;;;6.20;1.15;;;;;;;;;;5068397;28;20048;-45
2021/12/25 09:45:52;;;;;;;3.85;0.73;;;;;;;;;;5068560;28;20044;-42
2021/12/25 09:48:18;;;;;;;4.68;0.82;;;;;;;;;;5068471;28;20044;-42
2021/12/25 09:50:44;;;;;;;3.17;0.80;;;;;;;;;;5067312;28;20028;-46
2021/12/25 09:53:12;;;;;;;6.28;0.60;;;;;;;;;;5067581;28;20392;-47
2021/12/25 09:55:38;;;;;;;1.88;0.60;;;;;;;;;;5067252;28;20119;-47
2021/12/25 09:58:04;;;;;;;2.05;0.70;;;;;;;;;;5069682;28;20489;-43
2021/12/25 10:00:31;;;;;;;1.75;0.50;;;;;;;;;;5071099;28;20125;-46
2021/12/25 10:02:58;;;;;;;3.03;0.70;;;;;;;;;;5070899;28;20776;-44
2021/12/25 10:05:28;;;;;;;3.97;0.85;;;;;;;;;;5070597;28;20115;-42
2021/12/25 10:08:21;;;;;;;6.50;0.63;;;;;;;;;;5070864;28;20048;-42
2021/12/25 10:10:48;;;;;;;1.75;0.50;;;;;;;;;;5068099;28;20071;-42
2021/12/25 10:13:17;;;;;;;2.63;0.70;;;;;;;;;;5070431;28;20054;-46
2021/12/25 10:15:43;;;;;;;2.08;0.63;;;;;;;;;;5070509;28;20408;-47
2021/12/25 10:18:09;;;;;;;3.25;0.80;;;;;;;;;;5070343;28;20048;-45
2021/12/25 10:20:35;;;;;;;3.70;1.25;;;;;;;;;;5070581;28;20051;-45
2021/12/25 10:23:07;;;;;;;3.55;0.80;;;;;;;;;;5070727;28;20094;-43
2021/12/25 10:25:43;;;;;;;3.00;0.50;;;;;;;;;;5070081;28;20123;-43
2021/12/25 10:28:09;;;;;;;1.80;0.75;;;;;;;;;;5069978;28;20055;-43
2021/12/25 10:30:49;;;;;;;6.82;0.68;;;;;;;;;;5069965;28;20052;-42
2021/12/25 10:33:25;;;;;;;3.85;0.77;;;;;;;;;;5069794;28;20067;-43
2021/12/25 10:35:54;;;;;;;7.53;0.80;;;;;;;;;;5070253;28;20040;-46
2021/12/25 10:38:22;;;;;;;2.47;0.80;;;;;;;;;;5068709;28;20098;-42
2021/12/25 10:40:48;;;;;;;2.47;0.50;;;;;;;;;;5070086;28;20243;-43
2021/12/25 10:43:22;;;;;;;3.30;0.77;;;;;;;;;;5070298;28;20370;-44
2021/12/25 10:45:58;;;;;;;2.63;0.50;;;;;;;;;;5070555;28;20052;-42
2021/12/25 10:48:29;;;;;;;3.97;0.75;;;;;;;;;;5070479;28;20044;-42
2021/12/25 10:50:55;;;;;;;1.88;0.82;;;;;;;;;;5070465;28;20744;-42
2021/12/25 10:53:26;;;;;;;5.35;1.20;;;;;;;;;;5070391;28;20037;-45
2021/12/25 10:55:53;;;;;;;3.65;0.75;;;;;;;;;;5070357;28;20405;-43
2021/12/25 10:58:24;;;;;;;3.05;0.77;;;;;;;;;;5068905;28;20047;-42
2021/12/25 11:00:54;;;;;;;3.58;0.90;;;;;;;;;;5069391;28;20048;-44
2021/12/25 11:03:26;;;;;;;3.15;0.70;;;;;;;;;;5070000;28;20149;-43
2021/12/25 11:05:55;;;;;;;2.83;0.80;;;;;;;;;;5070071;28;20064;-42
2021/12/25 11:08:22;;;;;;;2.97;0.80;;;;;;;;;;5068851;28;20044;-42
2021/12/25 11:10:56;;;;;;;5.00;0.90;;;;;;;;;;5069949;28;20044;-44
2021/12/25 11:13:27;;;;;;;5.25;0.82;;;;;;;;;;5069540;28;20783;-44
2021/12/25 11:16:05;;;;;;;1.45;0.80;;;;;;;;;;5069533;28;20036;-42
2021/12/25 11:18:34;;;;;;;1.73;0.60;;;;;;;;;;5069227;28;20045;-44
2021/12/25 11:21:09;;;;;;;2.80;0.70;;;;;;;;;;5069192;28;20132;-43
2021/12/25 11:23:35;;;;;;;1.17;0.68;;;;;;;;;;5069307;28;20048;-42
2021/12/25 11:26:01;;;;;;;4.00;1.00;;;;;;;;;;5069226;28;20037;-44
2021/12/25 11:28:27;;;;;;;3.63;1.10;;;;;;;;;;5069103;28;20044;-46
2021/12/25 11:30:53;;;;;;;4.40;0.85;;;;;;;;;;5069243;28;20052;-43
2021/12/25 11:33:20;;;;;;;5.40;0.73;;;;;;;;;;5068909;28;20047;-45
2021/12/25 11:35:46;;;;;;;8.27;1.20;;;;;;;;;;5068772;28;20163;-48
2021/12/25 11:38:14;;;;;;;4.68;0.88;;;;;;;;;;5068796;28;20040;-47
2021/12/25 11:40:47;;;;;;;3.20;0.90;;;;;;;;;;5068804;28;20044;-48
2021/12/25 11:43:14;;;;;;;2.00;0.73;;;;;;;;;;5068674;28;20056;-46
2021/12/25 11:45:42;;;;;;;2.25;0.77;;;;;;;;;;5068656;28;20524;-44
2021/12/25 11:48:13;;;;;;;12.27;2.20;;;;;;;;;;5068566;28;20048;-46
2021/12/25 11:50:42;;;;;;;3.67;0.80;;;;;;;;;;5068595;28;20129;-46
2021/12/25 11:53:39;;;;;;;4.63;0.80;;;;;;;;;;5068390;28;20743;-45
2021/12/25 11:58:42;;;;;;;4.07;0.75;;;;;;;;;;5068495;28;20048;-47
2021/12/25 12:01:26;;;;;;;3.33;0.77;;;;;;;;;;5068482;28;20244;-46
2021/12/25 12:04:00;;;;;;;1.73;0.60;;;;;;;;;;5068957;28;20055;-42
2021/12/25 12:06:47;;;;;;;1.33;0.70;;;;;;;;;;5068212;28;20497;-43
2021/12/25 12:09:17;;;;;;;3.88;0.90;;;;;;;;;;5068537;28;20113;-42
2021/12/25 12:11:44;;;;;;;6.25;0.68;;;;;;;;;;5068946;28;20055;-42
2021/12/25 12:14:21;;;;;;;2.60;0.73;;;;;;;;;;5068737;28;20133;-42
2021/12/25 12:16:49;;;;;;;2.88;0.90;;;;;;;;;;5068719;28;20053;-47
2021/12/25 12:19:54;;;;;;;3.03;0.77;;;;;;;;;;5068210;28;20055;-46
2021/12/25 12:22:32;;;;;;;3.40;0.95;;;;;;;;;;5006131;28;20519;-43
2021/12/25 12:25:16;;;;;;;6.15;0.93;;;;;;;;;;5006339;28;20053;-45
2021/12/25 12:27:58;;;;;;;6.40;1.48;;;;;;;;;;5006059;28;20145;-43
2021/12/25 12:30:45;;;;;;;2.35;0.63;;;;;;;;;;5005643;28;20053;-43
2021/12/25 12:33:11;;;;;;;3.08;0.77;;;;;;;;;;5005269;28;20054;-46
2021/12/25 12:35:38;;;;;;;6.72;1.10;;;;;;;;;;5005349;28;20066;-48
2021/12/25 12:38:23;;;;;;;1.67;0.70;;;;;;;;;;5005248;28;20089;-41
2021/12/25 12:41:09;;;;;;;4.22;0.80;;;;;;;;;;5005331;28;20064;-44
2021/12/25 12:44:10;;;;;;;6.65;1.08;;;;;;;;;;5005133;28;20060;-43
2021/12/25 12:46:51;;;;;;;6.05;1.00;;;;;;;;;;4911637;29;20060;-42
2021/12/25 12:49:31;;;;;;;4.45;0.95;;;;;;;;;;4927513;29;20063;-43
2021/12/25 12:52:15;;;;;;;14.82;3.50;;;-1.60;99.90;;;;;;4928613;28;20048;-46
2021/12/25 12:54:46;;;;;;;2.50;0.85;;;;;;;;;;4999098;28;20093;-46
2021/12/25 12:57:24;;;;;;;3.42;0.82;;;;;;;;;;5019632;28;20049;-46
2021/12/25 12:59:50;;;;;;;1.65;0.57;;;;;;;;;;5024771;28;20037;-45
2021/12/25 13:02:16;;;;;;;1.60;0.77;;;;;;;;;;5024558;28;20188;-45
2021/12/25 13:04:47;;;;;;;2.53;0.70;;;;;;;;;;5024597;28;20557;-43
2021/12/25 13:07:14;;;;;;;4.28;0.70;;;;;;;;;;5024158;28;20959;-43
2021/12/25 13:09:49;;;;;;;2.20;0.95;;;;;;;;;;5024504;28;20124;-43
2021/12/25 13:15:16;;;;;;;2.05;0.82;;;;;;;;;;4965640;28;20686;-42
2021/12/25 13:17:46;;;;;;;6.30;1.20;;;;;;;;;;4965823;28;20059;-47
2021/12/25 13:20:12;;;;;;;3.65;1.02;;;;;;;;;;4985246;28;20050;-45
2021/12/25 13:22:38;;;;;;;3.35;0.70;;;;;;;;;;5024349;28;20050;-44
2021/12/25 13:25:07;;;;;;;3.38;0.65;;;;;;;;;;5024444;28;20064;-45
2021/12/25 13:27:33;;;;;;;3.65;0.60;;;;;;;;;;5024879;28;20042;-42
2021/12/25 13:30:11;;;;;;;4.53;0.95;;;;;;;;;;5025033;28;20395;-44
2021/12/25 13:32:39;;;;;;;6.45;1.80;;;;;;;;;;5014812;28;20058;-43
2021/12/25 13:35:06;;;;;;;1.20;0.63;;;;;;;;;;5014785;28;20044;-43
2021/12/25 13:37:32;;;;;;;3.70;0.80;;;;;;;;;;5004431;28;20037;-44
2021/12/25 13:39:58;;;;;;;10.45;1.50;;;;;;;;;;5001382;28;25028;-42
2021/12/25 13:42:26;;;;;;;2.92;1.00;;;;;;;;;;5002188;28;20570;-43
2021/12/25 13:44:53;;;;;;;4.55;0.93;;;;;;;;;;5008846;28;20053;-44
2021/12/25 13:47:23;;;;;;;4.07;0.88;;;;;;;;;;4991394;28;20096;-42
2021/12/25 13:49:52;;;;;;;2.60;0.70;;;;;;;;;;5013623;28;20050;-45
2021/12/25 13:52:20;;;;;;;8.95;2.05;;;;;;;;;;5071298;28;20044;-46
2021/12/25 13:54:57;;;;;;;2.38;0.80;;;;;;;;;;5070748;28;20079;-44
2021/12/25 13:57:25;;;;;;;2.50;0.70;;;;;;;;;;5070447;28;20536;-42
2021/12/25 13:59:52;;;;;;;3.28;0.90;;;;;;;;;;5070666;28;20094;-41
2021/12/25 14:02:18;;;;;;;3.88;0.77;;;;;;;;;;5070207;28;20509;-44
2021/12/25 14:04:51;;;;;;;4.65;1.13;;;;;;;;;;5070349;28;20041;-43
2021/12/25 14:07:18;;;;;;;1.58;0.40;;;;;;;;;;5068926;28;20057;-46
2021/12/25 14:09:59;;;;;;;2.95;0.60;;;;;;;;;;5069944;28;20372;-41
2021/12/25 14:12:25;;;;;;;3.58;0.88;;;;;;;;;;5070337;28;20094;-44
2021/12/25 14:14:52;;;;;;;0.85;0.47;;;;;;;;;;5070586;28;20041;-46
2021/12/25 14:17:20;;;;;;;5.65;0.90;;;;;;;;;;5070106;28;20603;-44
2021/12/25 14:19:46;;;;;;;1.13;0.60;;;;;;;;;;5070408;28;20059;-46
2021/12/25 14:22:12;;;;;;;0.93;0.50;;;;;;;;;;5070405;28;20424;-42
2021/12/25 14:24:49;;;;;;;6.22;1.10;;;;;;;;;;5068639;28;20127;-43
2021/12/25 14:27:21;;;;;;;4.15;0.85;;;;;;;;;;5068705;28;20059;-43
2021/12/25 14:29:48;;;;;;;3.90;1.00;;;;;;;;;;5068154;28;20048;-42
2021/12/25 14:32:25;;;;;;;4.68;0.90;;;;;;;;;;5069731;28;20056;-44
2021/12/25 14:34:52;;;;;;;6.40;1.15;;;;;;;;;;5070020;28;20102;-44
2021/12/25 14:37:27;;;;;;;2.67;0.82;;;;;;;;;;5069996;28;20048;-45
2021/12/25 14:40:00;;;;;;;4.35;1.42;;;;;;;;;;5069837;28;20051;-43
2021/12/25 14:42:33;;;;;;;4.57;1.10;;;;;;;;;;5069101;28;20652;-43
2021/12/25 14:44:59;;;;;;;3.55;0.90;;;;;;;;;;5069580;28;20048;-42
2021/12/25 14:47:25;;;;;;;8.10;1.58;;;;;;;;;;5069564;28;20040;-47
2021/12/25 14:49:52;;;;;;;4.40;1.10;;;;;;;;;;5070001;28;20041;-47
2021/12/25 14:52:19;;;;;;;2.15;0.50;;;;;;;;;;5069674;28;20052;-43
2021/12/25 14:54:47;;;;;;;5.18;1.10;;;;;;;;;;5069400;28;20056;-42
2021/12/25 14:57:24;;;;;;;3.13;1.08;;;;;;;;;;5068948;28;20044;-42
2021/12/25 14:59:50;;;;;;;7.18;1.40;;;;;;;;;;5069525;28;20118;-42
2021/12/25 15:02:21;;;;;;;4.97;1.10;;;;;;;;;;5068402;28;20036;-42
2021/12/25 15:04:49;;;;;;;4.65;0.98;;;;;;;;;;5050710;28;20075;-45
2021/12/25 15:07:16;;;;;;;2.22;0.82;;;;;;;;;;5068429;28;20410;-43
2021/12/25 15:09:50;;;;;;;2.95;1.10;;;;;;;;;;5069124;28;20106;-45
2021/12/25 15:12:19;;;;;;;1.58;0.77;;;;;;;;;;5068764;28;20134;-42
2021/12/25 15:15:02;;;;;;;7.18;1.35;;;;;;;;;;5069131;28;20174;-42
2021/12/25 15:17:30;;;;;;;6.28;1.50;;;;;;;;;;5069174;28;20168;-41
2021/12/25 15:20:16;;;;;;;5.72;1.17;;;;;;;;;;5069217;28;20173;-42
2021/12/25 15:22:43;;;;;;;2.47;1.10;;;;;;;;;;5068951;28;20052;-41
2021/12/25 15:25:11;;;;;;;5.50;2.08;;;;;;;;;;5068941;28;20519;-43
2021/12/25 15:27:37;;;;;;;4.63;1.20;;;;;;;;;;5069089;28;20054;-42
2021/12/25 15:30:08;;;;;;;3.20;1.17;;;;;;;;;;5068889;28;20159;-41
2021/12/25 15:32:36;;;;;;;3.67;1.25;;;;;;;;;;5068829;28;20055;-41
2021/12/25 15:35:06;;;;;;;3.42;0.93;;;;;;;;;;5068861;28;20048;-43
2021/12/25 15:37:34;;;;;;;7.40;0.95;;;;;;;;;;5068721;28;20048;-44
2021/12/25 15:40:02;;;;;;;2.20;0.88;;;;;;;;;;5068532;28;20128;-41
2021/12/25 15:42:28;;;;;;;4.78;0.80;;;;;;;;;;5068493;28;20497;-42
2021/12/25 15:44:54;;;;;;;3.47;1.05;;;;;;;;;;5068756;28;20551;-42
2021/12/25 15:47:21;;;;;;;4.72;0.82;;;;;;;;;;5068647;28;20051;-41
2021/12/25 15:49:48;;;;;;;4.38;0.95;;;;;;;;;;5068515;28;20050;-46
2021/12/25 15:52:14;;;;;;;4.22;1.20;;;;;;;;;;5068153;28;20052;-45
2021/12/25 15:54:40;;;;;;;3.63;1.05;;;;;;;;;;5066831;28;20068;-44
2021/12/25 15:57:08;;;;;;;4.05;0.90;;;;;;;;;;5067390;28;20040;-41
2021/12/25 15:59:38;;;;;;;8.15;1.20;;;;;;;;;;5067837;28;20052;-41
2021/12/25 16:02:08;;;;;;;4.35;1.38;;;;;;;;;;5068697;28;20041;-42